Time;durP1;ratioP1;P1;durP2;ratioP2;P2;SDS_P1;SDS_P2;PMS_P1;PMS_P2;Temp;Humidity;BMP_temperature;BMP_pressure;BME280_temperature;BME280_humidity;BME280_pressure;Samples;Min_cycle;Max_cycle;Signal;HPM_P1;HPM_P2
2024/03/15 00:02:16;;;;;;;8.30;6.50;;;11.80;99.90;;;;;;5054385;28;20253;-72
2024/03/15 00:04:42;;;;;;;8.70;6.67;;;11.80;99.90;;;;;;5053834;28;20261;-72
2024/03/15 00:07:08;;;;;;;7.23;6.53;;;11.80;99.90;;;;;;5054474;28;20639;-72
2024/03/15 00:09:33;;;;;;;7.47;6.77;;;11.80;99.90;;;;;;5054229;28;20576;-72
2024/03/15 00:12:00;;;;;;;9.30;6.77;;;11.80;99.90;;;;;;5054368;28;20205;-72
2024/03/15 00:14:27;;;;;;;9.63;6.97;;;11.80;99.90;;;;;;5053879;28;20171;-72
2024/03/15 00:16:53;;;;;;;6.77;6.13;;;11.70;99.90;;;;;;5053834;28;20250;-72
2024/03/15 00:19:19;;;;;;;8.57;7.00;;;11.70;99.90;;;;;;5054103;28;20167;-71
2024/03/15 00:21:45;;;;;;;6.97;6.30;;;11.70;99.90;;;;;;5054251;28;20170;-72
2024/03/15 00:24:12;;;;;;;8.17;7.17;;;11.60;99.90;;;;;;5053817;28;20167;-72
2024/03/15 00:26:38;;;;;;;8.27;6.63;;;11.60;99.90;;;;;;5053980;28;20171;-71
2024/03/15 00:29:04;;;;;;;8.40;7.43;;;11.50;99.90;;;;;;5053964;28;20201;-72
2024/03/15 00:31:30;;;;;;;9.17;7.40;;;11.50;99.90;;;;;;5052741;28;20214;-73
2024/03/15 00:33:57;;;;;;;9.00;7.60;;;11.40;99.90;;;;;;5053823;28;20718;-72
2024/03/15 00:36:23;;;;;;;8.07;7.20;;;11.40;99.90;;;;;;5054013;28;20280;-72
2024/03/15 00:38:49;;;;;;;7.53;6.83;;;11.40;99.90;;;;;;5053460;28;20225;-71
2024/03/15 00:41:15;;;;;;;8.90;7.47;;;11.40;99.90;;;;;;5053902;28;20615;-71
2024/03/15 00:43:41;;;;;;;8.80;7.27;;;11.40;99.90;;;;;;5053370;28;20178;-72
2024/03/15 00:46:07;;;;;;;8.67;7.80;;;11.40;99.90;;;;;;5051820;28;20202;-71
2024/03/15 00:48:32;;;;;;;7.87;7.17;;;11.40;99.90;;;;;;5053481;28;20174;-71
2024/03/15 00:50:59;;;;;;;11.47;7.43;;;11.50;99.90;;;;;;5053313;28;20289;-71
2024/03/15 00:53:25;;;;;;;9.63;7.30;;;11.50;99.90;;;;;;5053361;28;20174;-71
2024/03/15 00:55:50;;;;;;;8.80;7.07;;;11.50;99.90;;;;;;5052833;28;20738;-71
2024/03/15 00:58:18;;;;;;;9.83;7.23;;;11.50;99.90;;;;;;5053664;28;20258;-72
2024/03/15 01:00:44;;;;;;;9.20;6.77;;;11.50;99.90;;;;;;5052906;28;20187;-72
2024/03/15 01:03:11;;;;;;;7.37;6.60;;;11.50;99.90;;;;;;5052412;28;20170;-72
2024/03/15 01:05:37;;;;;;;8.40;7.60;;;11.50;99.90;;;;;;5052953;28;20179;-72
2024/03/15 01:08:03;;;;;;;7.77;6.97;;;11.50;99.90;;;;;;5052869;28;20324;-72
2024/03/15 01:10:31;;;;;;;8.90;6.00;;;11.60;99.90;;;;;;5054358;28;20233;-72
2024/03/15 01:12:58;;;;;;;7.47;6.73;;;11.70;99.90;;;;;;5053198;28;20198;-71
2024/03/15 01:15:24;;;;;;;8.50;7.03;;;11.70;99.90;;;;;;5052825;28;20217;-71
2024/03/15 01:17:53;;;;;;;7.60;6.90;;;11.80;99.90;;;;;;5053026;28;20174;-72
2024/03/15 01:20:19;;;;;;;7.00;6.33;;;11.90;99.90;;;;;;5052981;28;20204;-72
2024/03/15 01:22:47;;;;;;;7.50;6.80;;;11.90;99.90;;;;;;5051642;28;20524;-71
2024/03/15 01:25:13;;;;;;;7.77;6.90;;;11.90;99.90;;;;;;5052601;28;20171;-71
2024/03/15 01:27:39;;;;;;;6.90;6.30;;;11.90;99.90;;;;;;5052858;28;20182;-72
2024/03/15 01:30:05;;;;;;;7.33;6.33;;;12.00;99.90;;;;;;5052394;28;20702;-71
2024/03/15 01:32:31;;;;;;;8.77;6.90;;;12.00;99.90;;;;;;5052476;28;20179;-71
2024/03/15 01:34:57;;;;;;;7.47;6.50;;;12.00;99.90;;;;;;5051927;28;20248;-71
2024/03/15 01:37:22;;;;;;;7.73;6.93;;;11.90;99.90;;;;;;5052790;28;20190;-72
2024/03/15 01:39:48;;;;;;;7.73;6.90;;;11.90;99.90;;;;;;5052324;28;20210;-72
2024/03/15 01:42:15;;;;;;;9.67;7.10;;;11.90;99.90;;;;;;5052722;28;20654;-71
2024/03/15 01:44:54;;;;;;;7.17;6.47;;;11.80;99.90;;;;;;5051611;28;20265;-71
2024/03/15 01:47:20;;;;;;;9.07;7.13;;;11.70;99.90;;;;;;5052574;28;20186;-72
2024/03/15 01:49:47;;;;;;;7.63;6.70;;;11.70;99.90;;;;;;5052195;28;20195;-72
2024/03/15 01:52:13;;;;;;;9.43;7.00;;;11.60;99.90;;;;;;5052432;28;20189;-72
2024/03/15 01:54:39;;;;;;;9.07;7.60;;;11.60;99.90;;;;;;5051744;28;20747;-72
2024/03/15 01:57:06;;;;;;;8.00;7.20;;;11.60;99.90;;;;;;5052168;28;20240;-72
2024/03/15 01:59:34;;;;;;;8.37;7.37;;;11.50;99.90;;;;;;5052253;28;20179;-72
2024/03/15 02:02:03;;;;;;;8.97;7.10;;;11.40;99.90;;;;;;5052119;28;20578;-72
2024/03/15 02:04:33;;;;;;;8.03;7.33;;;11.40;99.90;;;;;;5051416;28;20182;-72
2024/03/15 02:06:59;;;;;;;10.40;7.80;;;11.30;99.90;;;;;;5051252;28;20178;-72
2024/03/15 02:09:28;;;;;;;8.87;7.73;;;11.30;99.90;;;;;;5051957;28;20178;-72
2024/03/15 02:11:57;;;;;;;9.50;7.77;;;11.20;99.90;;;;;;5051803;28;20585;-72
2024/03/15 02:14:24;;;;;;;11.27;7.63;;;11.20;99.90;;;;;;5051504;28;20196;-72
2024/03/15 02:16:50;;;;;;;9.80;7.63;;;11.30;99.90;;;;;;5051773;28;20234;-72
2024/03/15 02:19:16;;;;;;;11.70;8.37;;;11.20;99.90;;;;;;5051992;28;20233;-72
2024/03/15 02:21:43;;;;;;;11.33;8.60;;;11.30;99.90;;;;;;5052234;28;20234;-73
2024/03/15 02:24:10;;;;;;;8.03;7.27;;;11.30;99.90;;;;;;5051308;28;20166;-72
2024/03/15 02:26:39;;;;;;;9.23;7.80;;;11.30;99.90;;;;;;5050593;28;20645;-72
2024/03/15 02:29:05;;;;;;;12.10;8.50;;;11.30;99.90;;;;;;5051772;28;20671;-72
2024/03/15 02:31:31;;;;;;;11.10;8.60;;;11.40;99.90;;;;;;5051997;28;20260;-72
2024/03/15 02:33:57;;;;;;;11.17;8.40;;;11.40;99.90;;;;;;5052547;28;20640;-73
2024/03/15 02:36:24;;;;;;;8.97;8.07;;;11.40;99.90;;;;;;5052381;28;20591;-73
2024/03/15 02:38:49;;;;;;;8.20;7.43;;;11.40;99.90;;;;;;5051199;28;20667;-73
2024/03/15 02:41:15;;;;;;;8.53;7.73;;;11.50;99.90;;;;;;5051302;28;20194;-73
2024/03/15 02:43:47;;;;;;;11.53;9.73;;;11.50;99.90;;;;;;5051299;28;20662;-72
2024/03/15 02:46:15;;;;;;;11.47;7.93;;;11.60;99.90;;;;;;5051052;28;20179;-72
2024/03/15 02:48:43;;;;;;;9.83;8.00;;;11.60;99.90;;;;;;5051396;28;20541;-72
2024/03/15 02:51:10;;;;;;;8.97;8.00;;;11.60;99.90;;;;;;5051480;28;20608;-72
2024/03/15 02:53:36;;;;;;;9.00;7.23;;;11.60;99.90;;;;;;5051285;28;20632;-73
2024/03/15 02:56:02;;;;;;;8.83;7.23;;;11.60;99.90;;;;;;5051213;28;20217;-73
2024/03/15 02:58:29;;;;;;;11.13;9.00;;;11.70;99.90;;;;;;5051684;28;20644;-73
2024/03/15 03:00:54;;;;;;;7.90;7.20;;;11.70;99.90;;;;;;5051223;28;20191;-73
2024/03/15 03:03:24;;;;;;;8.47;7.17;;;11.70;99.90;;;;;;5050993;28;20528;-73
2024/03/15 03:05:50;;;;;;;11.23;7.77;;;11.70;99.90;;;;;;5051049;28;20171;-73
2024/03/15 03:08:15;;;;;;;8.93;7.83;;;11.70;99.90;;;;;;5051037;28;20236;-73
2024/03/15 03:10:41;;;;;;;7.23;6.63;;;11.60;99.90;;;;;;5051076;28;20265;-72
2024/03/15 03:13:07;;;;;;;7.80;7.07;;;11.60;99.90;;;;;;5051192;28;20671;-73
2024/03/15 03:15:33;;;;;;;8.37;7.50;;;11.60;99.90;;;;;;5051177;28;20703;-73
2024/03/15 03:17:59;;;;;;;8.47;7.67;;;11.60;99.90;;;;;;5051127;28;20171;-73
2024/03/15 03:20:28;;;;;;;8.57;7.60;;;11.60;99.90;;;;;;5050847;28;20201;-72
2024/03/15 03:22:53;;;;;;;8.70;7.13;;;11.60;99.90;;;;;;5051143;28;20258;-72
2024/03/15 03:25:20;;;;;;;8.47;7.47;;;11.50;99.90;;;;;;5052704;28;20277;-72
2024/03/15 03:27:46;;;;;;;12.37;7.43;;;11.50;99.90;;;;;;5055277;28;20179;-72
2024/03/15 03:30:11;;;;;;;9.37;7.83;;;11.50;99.90;;;;;;5055180;28;20244;-73
2024/03/15 03:32:38;;;;;;;7.97;7.27;;;11.40;99.90;;;;;;5055165;28;20228;-72
2024/03/15 03:35:07;;;;;;;8.47;7.60;;;11.40;99.90;;;;;;5054677;28;20206;-72
2024/03/15 03:37:33;;;;;;;8.27;7.43;;;11.40;99.90;;;;;;5054982;28;20178;-72
2024/03/15 03:39:59;;;;;;;8.87;7.50;;;11.40;99.90;;;;;;5054736;28;20277;-72
2024/03/15 03:42:27;;;;;;;8.70;7.67;;;11.40;99.90;;;;;;5054999;28;20254;-72
2024/03/15 03:44:53;;;;;;;9.37;7.00;;;11.40;99.90;;;;;;5054068;28;20175;-72
2024/03/15 03:47:20;;;;;;;8.60;7.80;;;11.40;99.90;;;;;;5054766;28;20214;-72
2024/03/15 03:49:47;;;;;;;7.67;7.07;;;11.40;99.90;;;;;;5054550;28;20270;-72
2024/03/15 03:52:13;;;;;;;7.63;6.83;;;11.40;99.90;;;;;;5055054;28;20181;-73
2024/03/15 03:54:39;;;;;;;9.33;7.30;;;11.40;99.90;;;;;;5055199;28;20182;-73
2024/03/15 03:57:04;;;;;;;7.50;6.60;;;11.40;99.90;;;;;;5057863;28;20187;-73
2024/03/15 03:59:30;;;;;;;7.70;6.13;;;11.50;99.90;;;;;;5055133;28;20200;-72
2024/03/15 04:01:56;;;;;;;9.30;7.00;;;11.50;99.90;;;;;;5054635;28;20183;-72
2024/03/15 04:04:21;;;;;;;7.10;6.50;;;11.50;99.90;;;;;;5054711;28;20175;-72
2024/03/15 04:06:51;;;;;;;8.13;6.53;;;11.50;99.90;;;;;;5053184;28;20211;-72
2024/03/15 04:09:19;;;;;;;6.80;5.40;;;11.50;99.90;;;;;;5054457;28;20261;-72
2024/03/15 04:11:45;;;;;;;6.13;4.97;;;11.60;99.90;;;;;;5054772;28;20698;-72
2024/03/15 04:14:15;;;;;;;5.00;4.53;;;11.60;99.90;;;;;;5054033;28;20178;-72
2024/03/15 04:16:44;;;;;;;5.47;4.80;;;11.70;99.90;;;;;;5054139;28;20237;-72
2024/03/15 04:19:10;;;;;;;5.53;5.03;;;11.80;99.90;;;;;;5054239;28;20193;-72
2024/03/15 04:21:35;;;;;;;7.83;5.10;;;11.90;99.90;;;;;;5054112;28;20676;-72
2024/03/15 04:24:03;;;;;;;6.77;4.83;;;12.00;99.90;;;;;;5053966;28;20186;-72
2024/03/15 04:26:31;;;;;;;5.23;4.80;;;12.10;99.90;;;;;;5054399;28;20167;-72
2024/03/15 04:28:57;;;;;;;8.63;5.20;;;12.20;99.90;;;;;;5053949;28;20247;-72
2024/03/15 04:31:23;;;;;;;4.90;4.40;;;12.20;99.90;;;;;;5053936;28;20343;-72
2024/03/15 04:33:49;;;;;;;4.90;4.43;;;12.30;99.90;;;;;;5053634;28;20709;-72
2024/03/15 04:36:15;;;;;;;4.77;4.37;;;12.40;99.90;;;;;;5054019;28;20207;-72
2024/03/15 04:38:41;;;;;;;5.67;4.53;;;12.40;99.90;;;;;;5053805;28;20210;-72
2024/03/15 04:41:09;;;;;;;4.97;4.27;;;12.50;99.90;;;;;;5053816;28;20202;-72
2024/03/15 04:43:36;;;;;;;6.57;4.47;;;12.60;99.90;;;;;;5053654;28;20213;-72
2024/03/15 04:46:03;;;;;;;4.93;4.43;;;12.70;99.90;;;;;;5053232;28;20561;-73
2024/03/15 04:48:29;;;;;;;5.23;4.50;;;12.70;99.90;;;;;;5053757;28;20240;-73
2024/03/15 04:50:55;;;;;;;4.33;4.03;;;12.80;99.90;;;;;;5052331;28;20290;-73
2024/03/15 04:53:21;;;;;;;6.13;4.07;;;12.80;99.90;;;;;;5053677;28;20195;-73
2024/03/15 04:55:46;;;;;;;4.37;3.90;;;12.80;99.90;;;;;;5054101;28;20299;-73
2024/03/15 04:58:12;;;;;;;4.47;4.07;;;12.90;99.90;;;;;;5053657;28;20182;-73
2024/03/15 05:00:38;;;;;;;5.53;4.30;;;12.90;99.90;;;;;;5053333;28;20695;-72
2024/03/15 05:03:06;;;;;;;7.50;4.43;;;12.90;99.90;;;;;;5033806;28;20176;-72
2024/03/15 05:05:32;;;;;;;5.60;4.53;;;12.90;99.90;;;;;;5053069;28;20599;-73
2024/03/15 05:07:57;;;;;;;5.43;4.23;;;13.00;99.90;;;;;;5053297;28;20186;-72
2024/03/15 05:10:23;;;;;;;5.20;4.53;;;13.00;99.90;;;;;;5053276;28;20210;-72
2024/03/15 05:12:50;;;;;;;4.23;3.83;;;13.00;99.90;;;;;;5053518;28;20265;-72
2024/03/15 05:15:16;;;;;;;6.20;4.30;;;13.00;99.90;;;;;;5052817;28;20244;-73
2024/03/15 05:17:41;;;;;;;8.80;4.13;;;13.10;99.90;;;;;;5053335;28;20662;-72
2024/03/15 05:20:12;;;;;;;5.67;3.90;;;13.10;99.90;;;;;;5053595;28;20221;-73
2024/03/15 05:22:38;;;;;;;6.50;3.83;;;13.10;99.90;;;;;;5053507;28;20640;-72
2024/03/15 05:25:09;;;;;;;5.53;4.20;;;13.10;99.90;;;;;;5052657;28;20190;-73
2024/03/15 05:27:34;;;;;;;5.00;4.37;;;13.20;99.90;;;;;;5053265;28;20183;-73
2024/03/15 05:30:00;;;;;;;4.20;3.90;;;13.20;99.90;;;;;;5052644;28;20206;-73
2024/03/15 05:32:29;;;;;;;4.60;4.00;;;13.20;99.90;;;;;;5052734;28;20553;-73
2024/03/15 05:34:54;;;;;;;5.37;4.33;;;13.20;99.90;;;;;;5052447;28;20241;-73
2024/03/15 05:37:20;;;;;;;5.67;4.23;;;13.20;99.90;;;;;;5053318;28;20280;-73
2024/03/15 05:39:47;;;;;;;7.47;4.43;;;13.20;99.90;;;;;;5052994;28;20211;-73
2024/03/15 05:42:13;;;;;;;4.90;4.47;;;13.20;99.90;;;;;;5052919;28;20183;-72
2024/03/15 05:44:38;;;;;;;4.20;3.90;;;13.20;99.90;;;;;;5052224;28;20266;-73
2024/03/15 05:47:04;;;;;;;4.97;3.87;;;13.20;99.90;;;;;;5052440;28;20248;-73
2024/03/15 05:49:30;;;;;;;7.07;4.70;;;13.20;99.90;;;;;;5052312;28;20183;-73
2024/03/15 05:51:55;;;;;;;4.27;3.90;;;13.20;99.90;;;;;;5052416;28;20245;-73
2024/03/15 05:54:21;;;;;;;7.80;3.97;;;13.20;99.90;;;;;;5052603;28;20213;-72
2024/03/15 05:56:47;;;;;;;5.43;3.93;;;13.20;99.90;;;;;;5053149;28;20194;-72
2024/03/15 05:59:13;;;;;;;5.30;4.20;;;13.20;99.90;;;;;;5052592;28;20182;-73
2024/03/15 06:01:41;;;;;;;6.10;4.07;;;13.20;99.90;;;;;;5057161;28;20198;-73
2024/03/15 06:04:10;;;;;;;6.50;4.17;;;13.20;99.90;;;;;;5054070;28;20671;-72
2024/03/15 06:06:38;;;;;;;5.33;4.00;;;13.20;99.90;;;;;;5052627;28;20189;-72
2024/03/15 06:09:05;;;;;;;6.10;4.47;;;13.30;99.90;;;;;;5052168;28;20179;-72
2024/03/15 06:11:31;;;;;;;4.73;4.23;;;13.30;99.90;;;;;;5052333;28;20221;-73
2024/03/15 06:13:57;;;;;;;5.47;4.50;;;13.40;99.90;;;;;;5052112;28;20189;-73
2024/03/15 06:16:26;;;;;;;7.30;4.63;;;13.40;99.90;;;;;;5052259;28;20215;-73
2024/03/15 06:18:52;;;;;;;4.97;4.17;;;13.40;99.90;;;;;;5053389;28;20167;-73
2024/03/15 06:21:18;;;;;;;5.80;4.50;;;13.50;99.90;;;;;;5053514;28;20268;-73
2024/03/15 06:23:44;;;;;;;6.77;4.37;;;13.50;99.90;;;;;;5054202;28;20178;-73
2024/03/15 06:26:09;;;;;;;4.23;3.87;;;13.60;99.90;;;;;;5053320;28;20229;-73
2024/03/15 06:28:36;;;;;;;7.27;4.17;;;13.60;99.90;;;;;;5053626;28;20551;-74
2024/03/15 06:31:04;;;;;;;5.03;4.30;;;13.60;99.90;;;;;;5053957;28;20617;-73
2024/03/15 06:33:31;;;;;;;6.17;4.13;;;13.60;99.90;;;;;;5053381;28;20290;-73
2024/03/15 06:36:00;;;;;;;7.00;4.50;;;13.70;99.90;;;;;;5052449;28;20195;-72
2024/03/15 06:38:51;;;;;;;6.43;4.80;;;13.70;99.90;;;;;;5054255;28;20166;-73
2024/03/15 06:49:24;;;;;;;7.40;4.23;;;14.10;99.90;;;;;;5052256;28;20201;-73
2024/03/15 06:54:34;;;;;;;3.77;3.43;;;14.20;99.90;;;;;;5052187;28;20185;-73
2024/03/15 06:57:00;;;;;;;5.70;4.00;;;14.30;99.90;;;;;;5050446;28;20194;-72
2024/03/15 06:59:25;;;;;;;5.40;4.37;;;14.40;99.90;;;;;;5050282;28;20642;-72
2024/03/15 07:01:52;;;;;;;4.73;4.00;;;14.50;99.90;;;;;;5051275;28;20245;-73
2024/03/15 07:04:18;;;;;;;7.07;4.10;;;14.50;99.90;;;;;;5051344;28;20535;-72
2024/03/15 07:06:44;;;;;;;6.93;4.13;;;14.60;99.90;;;;;;5051166;28;20183;-72
2024/03/15 07:09:19;;;;;;;4.60;4.13;;;14.60;99.90;;;;;;5051520;28;20174;-72
2024/03/15 07:11:47;;;;;;;5.50;5.07;;;14.70;99.90;;;;;;5052069;28;20231;-73
2024/03/15 07:14:13;;;;;;;5.77;4.30;;;14.80;99.90;;;;;;5053829;28;20163;-72
2024/03/15 07:16:39;;;;;;;4.67;4.20;;;14.90;99.90;;;;;;5051700;28;20221;-73
2024/03/15 07:19:05;;;;;;;4.63;3.83;;;14.90;99.90;;;;;;5052260;28;20174;-73
2024/03/15 07:21:32;;;;;;;5.57;4.07;;;15.00;99.90;;;;;;5053539;28;20190;-73
2024/03/15 07:23:58;;;;;;;5.37;4.23;;;15.00;99.90;;;;;;5053490;28;20533;-73
2024/03/15 07:26:24;;;;;;;6.30;4.23;;;15.00;99.90;;;;;;5052491;28;20167;-73
2024/03/15 07:28:50;;;;;;;4.70;4.17;;;14.90;99.90;;;;;;5051231;28;20183;-72
2024/03/15 07:31:16;;;;;;;4.97;4.03;;;14.60;99.90;;;;;;5051085;28;20217;-74
2024/03/15 07:33:42;;;;;;;7.83;4.90;;;14.30;99.90;;;;;;5049950;28;20663;-74
2024/03/15 07:36:13;;;;;;;5.10;4.60;;;14.00;99.90;;;;;;5051216;28;20753;-73
2024/03/15 07:38:42;;;;;;;8.23;4.70;;;13.70;99.90;;;;;;5051374;28;20246;-73
2024/03/15 07:41:11;;;;;;;5.60;5.03;;;13.50;99.90;;;;;;5050872;28;20214;-73
2024/03/15 07:43:36;;;;;;;6.17;4.73;;;13.30;99.90;;;;;;5050950;28;20539;-72
2024/03/15 07:46:05;;;;;;;7.80;4.73;;;13.20;99.90;;;;;;5050829;28;20187;-73
2024/03/15 07:48:31;;;;;;;5.93;5.17;;;13.20;99.90;;;;;;5051051;28;20258;-73
2024/03/15 07:50:57;;;;;;;5.60;5.10;;;13.10;99.90;;;;;;5050921;28;20190;-73
2024/03/15 07:53:22;;;;;;;7.13;5.30;;;13.10;99.90;;;;;;5050856;28;20262;-73
2024/03/15 07:55:50;;;;;;;5.47;5.00;;;13.10;99.90;;;;;;5050549;28;20241;-73
2024/03/15 07:58:16;;;;;;;7.87;5.63;;;13.10;99.90;;;;;;5051499;28;20175;-73
2024/03/15 08:00:43;;;;;;;6.27;5.67;;;13.00;99.90;;;;;;5050899;28;20278;-73
2024/03/15 08:03:10;;;;;;;7.60;5.17;;;13.00;99.90;;;;;;5050795;28;20206;-73
2024/03/15 08:05:37;;;;;;;9.17;5.40;;;12.90;99.90;;;;;;5051022;28;20179;-73
2024/03/15 08:08:05;;;;;;;8.93;5.60;;;12.90;99.90;;;;;;5051108;28;20175;-73
2024/03/15 08:10:31;;;;;;;8.87;5.93;;;12.90;99.90;;;;;;5050915;28;20224;-73
2024/03/15 08:12:56;;;;;;;6.57;5.87;;;12.90;99.90;;;;;;5054391;28;20281;-73
2024/03/15 08:15:23;;;;;;;6.60;5.77;;;12.90;99.90;;;;;;5054326;28;20202;-73
2024/03/15 08:17:50;;;;;;;11.57;7.57;;;13.00;99.90;;;;;;5054434;28;20159;-73
2024/03/15 08:20:16;;;;;;;7.60;6.43;;;13.00;99.90;;;;;;5054198;28;20609;-73
2024/03/15 08:22:42;;;;;;;7.47;6.40;;;13.10;99.90;;;;;;5054161;28;20166;-73
2024/03/15 08:25:09;;;;;;;8.13;6.07;;;13.20;99.90;;;;;;5053621;28;20542;-73
2024/03/15 08:27:34;;;;;;;8.43;6.03;;;13.30;99.90;;;;;;5053953;28;20707;-74
2024/03/15 08:30:00;;;;;;;11.80;6.93;;;13.40;99.90;;;;;;5054197;28;20199;-73
2024/03/15 08:32:29;;;;;;;9.47;5.60;;;13.60;99.90;;;;;;5054333;28;20190;-73
2024/03/15 08:34:55;;;;;;;8.30;5.30;;;13.80;99.90;;;;;;5053856;28;20270;-74
2024/03/15 08:37:22;;;;;;;8.00;5.10;;;13.90;99.90;;;;;;5054215;28;20253;-74
2024/03/15 08:39:47;;;;;;;7.63;5.10;;;14.10;99.90;;;;;;5054323;28;20209;-73
2024/03/15 08:42:13;;;;;;;5.50;4.90;;;14.10;99.90;;;;;;5054132;28;20628;-73
2024/03/15 08:44:38;;;;;;;5.70;5.10;;;14.20;99.90;;;;;;5054042;28;20175;-73
2024/03/15 08:47:07;;;;;;;5.03;4.60;;;14.20;99.90;;;;;;5053786;28;20254;-73
2024/03/15 08:49:34;;;;;;;5.23;4.73;;;14.30;99.90;;;;;;5053738;28;20221;-73
2024/03/15 08:51:59;;;;;;;5.07;4.57;;;14.40;99.90;;;;;;5053794;28;20191;-73
2024/03/15 08:54:25;;;;;;;10.03;5.00;;;14.60;99.90;;;;;;5053716;28;20185;-73
2024/03/15 08:56:51;;;;;;;5.20;4.70;;;14.70;99.90;;;;;;5053618;28;20207;-73
2024/03/15 08:59:17;;;;;;;6.97;4.80;;;14.90;99.90;;;;;;5053846;28;20175;-73
2024/03/15 09:01:43;;;;;;;8.50;4.57;;;15.00;99.90;;;;;;5053545;28;20210;-73
2024/03/15 09:04:09;;;;;;;5.73;4.97;;;15.20;99.90;;;;;;5053461;28;20179;-73
2024/03/15 09:06:36;;;;;;;5.67;4.20;;;15.30;99.90;;;;;;5053761;28;20174;-73
2024/03/15 09:09:13;;;;;;;4.67;4.27;;;15.50;99.90;;;;;;5053489;28;20182;-73
2024/03/15 09:11:39;;;;;;;5.17;3.97;;;15.60;99.90;;;;;;5053940;28;20202;-73
2024/03/15 09:14:07;;;;;;;5.93;4.17;;;15.90;99.90;;;;;;5053116;28;20210;-72
2024/03/15 09:16:37;;;;;;;4.40;3.97;;;16.20;99.90;;;;;;5053168;28;20214;-73
2024/03/15 09:19:04;;;;;;;7.40;4.07;;;16.50;99.90;;;;;;5053037;28;20183;-72
2024/03/15 09:21:32;;;;;;;6.67;3.70;;;16.80;99.90;;;;;;5053470;28;20191;-73
2024/03/15 09:24:01;;;;;;;5.47;3.80;;;17.10;99.90;;;;;;5051749;28;20209;-73
2024/03/15 09:26:28;;;;;;;5.17;4.00;;;17.30;99.90;;;;;;5053516;28;20254;-73
2024/03/15 09:28:57;;;;;;;5.43;3.40;;;17.50;99.90;;;;;;5053020;28;20189;-72
2024/03/15 09:31:24;;;;;;;4.43;4.00;;;17.60;99.90;;;;;;5053110;28;20244;-72
2024/03/15 09:33:51;;;;;;;6.13;4.33;;;17.60;99.90;;;;;;5052701;28;20178;-72
2024/03/15 09:36:18;;;;;;;4.30;3.90;;;17.60;99.90;;;;;;5052916;28;20202;-72
2024/03/15 09:38:46;;;;;;;5.87;3.47;;;17.50;99.90;;;;;;5052798;28;20198;-72
2024/03/15 09:41:15;;;;;;;3.80;3.37;;;17.40;99.90;;;;;;5052136;28;20679;-72
2024/03/15 09:43:41;;;;;;;4.93;3.37;;;17.40;99.90;;;;;;5052279;28;20171;-72
2024/03/15 09:46:17;;;;;;;3.50;3.20;;;17.20;99.90;;;;;;5052518;28;20236;-72
2024/03/15 09:48:49;;;;;;;3.63;3.13;;;17.10;99.90;;;;;;5052851;28;20178;-72
2024/03/15 09:51:16;;;;;;;4.23;3.43;;;17.00;99.90;;;;;;5052602;28;20221;-73
2024/03/15 09:53:43;;;;;;;4.10;3.70;;;16.80;99.90;;;;;;5052360;28;20171;-73
2024/03/15 09:56:17;;;;;;;3.97;3.70;;;16.80;99.90;;;;;;5052645;28;20277;-73
2024/03/15 09:58:49;;;;;;;5.00;3.53;;;16.80;99.90;;;;;;5051060;28;20182;-72
2024/03/15 10:01:15;;;;;;;4.63;4.33;;;16.80;99.90;;;;;;5052169;28;20244;-72
2024/03/15 10:03:49;;;;;;;5.20;4.70;;;16.80;99.90;;;;;;5052043;28;20218;-72
2024/03/15 10:06:17;;;;;;;3.80;3.27;;;16.80;99.90;;;;;;5052314;28;20170;-72
2024/03/15 10:08:43;;;;;;;3.47;3.17;;;16.70;99.90;;;;;;5052401;28;20226;-72
2024/03/15 10:11:09;;;;;;;3.07;2.77;;;16.90;99.90;;;;;;5052015;28;20194;-72
2024/03/15 10:13:34;;;;;;;3.40;3.10;;;17.00;99.90;;;;;;5052211;28;20182;-73
2024/03/15 10:16:00;;;;;;;3.23;3.03;;;17.20;99.90;;;;;;5051824;28;20202;-73
2024/03/15 10:18:26;;;;;;;3.10;2.80;;;17.30;99.90;;;;;;5052476;28;20664;-72
2024/03/15 10:20:57;;;;;;;3.53;3.23;;;17.30;99.90;;;;;;5051806;28;20273;-73
2024/03/15 10:23:22;;;;;;;3.10;2.80;;;17.40;99.90;;;;;;5051846;28;20174;-72
2024/03/15 10:25:53;;;;;;;4.03;2.77;;;17.40;99.90;;;;;;5050372;28;20719;-73
2024/03/15 10:28:21;;;;;;;3.43;2.80;;;17.30;99.90;;;;;;5051683;28;20182;-72
2024/03/15 10:30:47;;;;;;;3.80;2.53;;;17.30;99.90;;;;;;5051619;28;20198;-73
2024/03/15 10:33:13;;;;;;;4.10;3.23;;;17.30;99.90;;;;;;5051856;28;20769;-71
2024/03/15 10:35:39;;;;;;;2.90;2.70;;;17.40;99.90;;;;;;5051811;28;20194;-72
2024/03/15 10:38:05;;;;;;;3.20;2.90;;;17.40;99.90;;;;;;5052048;28;20167;-72
2024/03/15 10:40:34;;;;;;;3.23;2.93;;;17.50;99.90;;;;;;5052085;28;20193;-72
2024/03/15 10:43:08;;;;;;;5.83;2.90;;;17.60;99.90;;;;;;5051372;28;20214;-71
2024/03/15 10:45:35;;;;;;;2.80;2.57;;;17.80;99.90;;;;;;5051840;28;20170;-72
2024/03/15 10:48:06;;;;;;;2.80;2.60;;;18.00;99.90;;;;;;5051609;28;20171;-72
2024/03/15 10:50:33;;;;;;;2.80;2.60;;;18.20;99.90;;;;;;5051844;28;20233;-71
2024/03/15 10:53:00;;;;;;;4.07;2.70;;;18.60;99.90;;;;;;5051255;28;20257;-71
2024/03/15 10:55:28;;;;;;;3.78;2.53;;;18.90;99.90;;;;;;5052034;28;20564;-71
2024/03/15 10:57:58;;;;;;;4.45;2.40;;;19.20;99.90;;;;;;5051432;28;20254;-71
2024/03/15 11:00:27;;;;;;;3.85;2.38;;;19.40;99.90;;;;;;5051526;28;20659;-71
2024/03/15 11:02:54;;;;;;;3.20;2.20;;;19.60;99.90;;;;;;5051237;28;20167;-71
2024/03/15 11:05:29;;;;;;;3.10;1.90;;;19.70;99.90;;;;;;5051130;28;20198;-71
2024/03/15 11:08:02;;;;;;;7.72;2.40;;;19.60;99.90;;;;;;5051342;28;20228;-71
2024/03/15 11:10:29;;;;;;;3.20;2.90;;;19.20;99.90;;;;;;5051325;28;20194;-72
2024/03/15 11:12:57;;;;;;;2.87;2.67;;;18.90;99.90;;;;;;5051235;28;20174;-71
2024/03/15 11:15:23;;;;;;;2.70;2.50;;;18.60;99.90;;;;;;5051272;28;20711;-71
2024/03/15 11:18:18;;;;;;;3.40;2.70;;;18.10;99.90;;;;;;5051732;28;20535;-71
2024/03/15 11:20:54;;;;;;;8.07;3.40;;;17.50;99.90;;;;;;5050694;28;20260;-70
2024/03/15 11:23:25;;;;;;;3.10;2.80;;;16.90;99.90;;;;;;5051334;28;20695;-70
2024/03/15 11:25:54;;;;;;;3.03;2.83;;;16.20;99.90;;;;;;5050856;28;20585;-71
2024/03/15 11:28:21;;;;;;;3.00;2.80;;;15.80;99.90;;;;;;5051474;28;20236;-71
2024/03/15 11:30:47;;;;;;;3.10;2.70;;;15.60;99.90;;;;;;5051458;28;20238;-71
2024/03/15 11:33:13;;;;;;;3.87;2.57;;;15.60;99.90;;;;;;5051374;28;20220;-71
2024/03/15 11:35:40;;;;;;;2.93;2.73;;;15.50;99.90;;;;;;5050863;28;20194;-71
2024/03/15 11:38:13;;;;;;;4.73;2.90;;;15.50;99.90;;;;;;5050942;28;20260;-72
2024/03/15 11:40:40;;;;;;;3.17;2.93;;;15.70;99.90;;;;;;5051182;28;20541;-70
2024/03/15 11:43:07;;;;;;;2.63;2.50;;;16.10;99.90;;;;;;5050813;28;20167;-71
2024/03/15 11:45:34;;;;;;;2.97;2.77;;;16.80;99.90;;;;;;5050833;28;20548;-69
2024/03/15 11:48:00;;;;;;;4.23;3.27;;;17.60;99.90;;;;;;5055340;28;20178;-71
2024/03/15 11:50:26;;;;;;;3.70;2.80;;;18.20;99.90;;;;;;5055613;28;20664;-72
2024/03/15 11:53:02;;;;;;;3.60;2.90;;;18.80;99.90;;;;;;5054216;28;20179;-72
2024/03/15 11:55:27;;;;;;;2.70;2.42;;;19.10;99.90;;;;;;5055009;28;20285;-72
2024/03/15 11:57:53;;;;;;;5.07;2.50;;;19.30;99.90;;;;;;5055338;28;20308;-71
2024/03/15 12:00:23;;;;;;;4.15;2.47;;;19.40;99.90;;;;;;5055362;28;20703;-71
2024/03/15 12:02:50;;;;;;;2.67;2.42;;;19.50;99.90;;;;;;5054967;28;20186;-72
2024/03/15 12:05:16;;;;;;;2.70;2.50;;;19.70;99.90;;;;;;5055396;28;20273;-71
2024/03/15 12:07:45;;;;;;;3.50;2.30;;;19.80;99.90;;;;;;5058083;28;20199;-72
2024/03/15 12:10:14;;;;;;;3.08;2.58;;;19.90;99.90;;;;;;5055263;28;20570;-72
2024/03/15 12:12:46;;;;;;;3.10;2.20;;;20.10;99.90;;;;;;5055162;28;20216;-71
2024/03/15 12:15:32;;;;;;;3.20;2.38;;;20.20;99.90;;;;;;5059563;28;20283;-72
2024/03/15 12:17:59;;;;;;;2.00;1.90;;;20.50;99.90;;;;;;5056859;28;20171;-72
2024/03/15 12:20:25;;;;;;;4.45;2.30;;;20.50;99.90;;;;;;5055666;28;20735;-72
2024/03/15 12:22:54;;;;;;;2.88;2.38;;;20.20;99.90;;;;;;5055493;28;20567;-71
2024/03/15 12:25:21;;;;;;;2.60;2.30;;;19.80;99.90;;;;;;5056020;28;20171;-72
2024/03/15 12:27:47;;;;;;;3.17;2.20;;;19.70;99.90;;;;;;5054876;28;20181;-72
2024/03/15 12:30:13;;;;;;;5.43;2.10;;;19.60;99.90;;;;;;5054496;28;20195;-72
2024/03/15 12:32:39;;;;;;;2.53;2.33;;;19.60;99.90;;;;;;5057132;28;20186;-72
2024/03/15 12:35:05;;;;;;;4.90;2.40;;;19.80;99.90;;;;;;5054945;28;20249;-72
2024/03/15 12:37:31;;;;;;;3.50;2.38;;;19.90;99.90;;;;;;5059182;28;20175;-73
2024/03/15 12:40:00;;;;;;;2.60;2.38;;;20.10;99.90;;;;;;5056341;28;20193;-72
2024/03/15 12:42:26;;;;;;;4.15;2.20;;;20.50;99.90;;;;;;5057333;28;20171;-71
2024/03/15 12:44:54;;;;;;;2.25;2.10;;;20.50;99.90;;;;;;5056771;28;20178;-73
2024/03/15 12:47:20;;;;;;;3.42;2.30;;;20.30;99.90;;;;;;5054682;28;20206;-72
2024/03/15 12:49:46;;;;;;;3.35;2.20;;;20.10;99.90;;;;;;5054633;28;20226;-70
2024/03/15 12:52:12;;;;;;;3.80;2.40;;;19.90;99.90;;;;;;5056031;28;20178;-71
2024/03/15 12:54:40;;;;;;;3.00;2.17;;;19.90;99.90;;;;;;5055603;28;20243;-72
2024/03/15 12:57:08;;;;;;;2.65;1.95;;;20.30;99.90;;;;;;5055191;28;20194;-73